createdAt,value
2022-08-28T00:00:15.609Z,29.05
2022-08-28T00:05:13.156Z,29.22
2022-08-28T00:10:11.250Z,29.42
2022-08-28T00:15:09.521Z,29.36
2022-08-28T00:20:18.050Z,29.25
2022-08-28T00:25:15.492Z,28.54
2022-08-28T00:30:12.240Z,27.71
2022-08-28T00:35:09.113Z,26.84
2022-08-28T00:40:08.446Z,26.81
2022-08-28T00:45:05.622Z,26.83
2022-08-28T00:50:03.175Z,26.64
2022-08-28T00:55:01.385Z,26.64
2022-08-28T00:59:58.819Z,26.48
2022-08-28T01:04:55.659Z,26.63
2022-08-28T01:09:53.484Z,26.70
2022-08-28T01:14:51.995Z,26.92
2022-08-28T01:19:55.839Z,26.61
2022-08-28T01:24:53.779Z,26.33
2022-08-28T01:29:50.360Z,26.26
2022-08-28T01:34:47.080Z,26.21
2022-08-28T01:39:43.563Z,26.33
2022-08-28T01:44:40.723Z,26.48
2022-08-28T01:49:37.375Z,26.46
2022-08-28T01:54:33.939Z,26.13
2022-08-28T01:59:32.671Z,26.51
2022-08-28T02:04:31.932Z,26.73
2022-08-28T02:09:29.134Z,26.49
2022-08-28T02:14:25.750Z,26.78
2022-08-28T02:19:22.351Z,27.04
2022-08-28T02:24:19.760Z,26.95
2022-08-28T02:29:16.634Z,27.13
2022-08-28T02:34:13.282Z,27.07
2022-08-28T02:39:09.937Z,26.66
2022-08-28T02:44:07.215Z,26.54
2022-08-28T02:49:03.839Z,25.99
2022-08-28T02:54:00.788Z,25.86
2022-08-28T02:58:57.792Z,25.73
2022-08-28T03:03:55.099Z,25.56
2022-08-28T03:08:51.665Z,25.50
2022-08-28T03:13:48.968Z,25.40
2022-08-28T03:18:45.554Z,25.38
2022-08-28T03:23:42.841Z,25.29
2022-08-28T03:28:41.262Z,25.27
2022-08-28T03:33:38.038Z,25.50
2022-08-28T03:38:40.870Z,25.36
2022-08-28T03:43:38.134Z,25.46
2022-08-28T03:48:35.765Z,25.86
2022-08-28T03:53:32.497Z,25.91
2022-08-28T03:58:29.068Z,25.96
2022-08-28T04:03:26.548Z,26.51
2022-08-28T04:08:23.264Z,26.88
2022-08-28T04:13:20.240Z,26.94
2022-08-28T04:18:16.856Z,27.09
2022-08-28T04:23:14.084Z,27.47
2022-08-28T04:28:10.657Z,27.81
2022-08-28T04:33:07.378Z,27.81
2022-08-28T04:38:05.555Z,26.98
2022-08-28T04:43:03.150Z,26.74
2022-08-28T04:48:00.231Z,26.85
2022-08-28T04:52:59.924Z,26.46
2022-08-28T04:57:56.588Z,26.30
2022-08-28T05:02:54.452Z,26.39
2022-08-28T05:07:51.132Z,26.75
2022-08-28T05:12:47.824Z,26.78
2022-08-28T05:17:46.537Z,26.94
2022-08-28T05:22:43.807Z,27.38
2022-08-28T05:27:40.657Z,27.60
2022-08-28T05:32:37.300Z,27.67
2022-08-28T05:37:34.073Z,27.70
2022-08-28T05:42:33.113Z,27.78
2022-08-28T05:47:32.562Z,27.44
2022-08-28T05:52:29.701Z,27.00
2022-08-28T05:57:26.470Z,26.72
2022-08-28T06:02:23.802Z,26.70
2022-08-28T06:07:20.454Z,26.45
2022-08-28T06:12:17.116Z,26.58
2022-08-28T06:17:14.794Z,26.84
2022-08-28T06:22:14.216Z,27.00
2022-08-28T06:27:10.825Z,27.05
2022-08-28T06:32:08.469Z,26.94
2022-08-28T06:37:05.108Z,27.02
2022-08-28T06:42:02.599Z,26.95
2022-08-28T06:46:59.755Z,27.14
2022-08-28T06:51:56.366Z,27.53
2022-08-28T06:56:53.601Z,27.69
2022-08-28T07:01:52.400Z,27.74
2022-08-28T07:06:53.698Z,27.84
2022-08-28T07:11:51.144Z,28.34
2022-08-28T07:16:49.039Z,28.34
2022-08-28T07:21:47.421Z,28.37
2022-08-28T07:26:44.869Z,28.60
2022-08-28T07:31:43.362Z,28.51
2022-08-28T07:36:40.862Z,28.68
2022-08-28T07:41:39.727Z,28.85
2022-08-28T07:46:37.033Z,29.10
2022-08-28T07:51:33.668Z,29.37
2022-08-28T07:56:30.541Z,29.67
2022-08-28T08:01:29.141Z,29.77
2022-08-28T08:06:28.065Z,29.94
2022-08-28T08:11:32.447Z,30.09
2022-08-28T08:16:30.243Z,30.28
2022-08-28T08:21:30.286Z,30.44
2022-08-28T08:26:28.341Z,30.69
2022-08-28T08:31:26.113Z,30.79
2022-08-28T08:36:24.276Z,30.78
2022-08-28T08:41:22.995Z,31.02
2022-08-28T08:46:20.122Z,31.20
2022-08-28T08:51:19.978Z,31.34
2022-08-28T08:56:21.112Z,31.53
2022-08-28T09:01:21.189Z,31.64
2022-08-28T09:06:21.265Z,31.79
2022-08-28T09:11:23.590Z,31.98
2022-08-28T09:16:26.933Z,32.08
2022-08-28T09:21:28.995Z,32.23
2022-08-28T09:26:26.907Z,32.27
2022-08-28T09:31:31.429Z,32.44
2022-08-28T09:36:29.556Z,32.42
2022-08-28T09:41:45.498Z,32.63
2022-08-28T09:46:47.403Z,32.72
2022-08-28T09:51:44.047Z,32.86
2022-08-28T09:56:42.112Z,32.92
2022-08-28T10:01:44.779Z,32.96
2022-08-28T10:06:44.100Z,33.05
2022-08-28T10:11:48.155Z,33.10
2022-08-28T10:16:51.460Z,33.08
2022-08-28T10:21:55.309Z,33.18
2022-08-28T10:26:55.569Z,33.26
2022-08-28T10:31:59.245Z,33.53
2022-08-28T10:37:02.119Z,33.62
2022-08-28T10:42:02.428Z,33.88
2022-08-28T10:46:59.424Z,33.97
2022-08-28T10:52:00.786Z,33.94
2022-08-28T10:57:03.366Z,34.02
2022-08-28T11:02:00.925Z,34.07
2022-08-28T11:07:01.175Z,34.32
2022-08-28T11:12:01.759Z,34.51
2022-08-28T11:17:01.573Z,34.62
2022-08-28T11:22:02.115Z,34.94
2022-08-28T11:27:05.976Z,34.89
2022-08-28T11:32:17.437Z,35.00
2022-08-28T11:37:34.713Z,34.89
2022-08-28T11:42:36.757Z,34.89
2022-08-28T11:47:45.166Z,34.84
2022-08-28T11:52:53.940Z,34.74
2022-08-28T12:03:08.235Z,34.69
2022-08-28T12:08:05.590Z,34.68
2022-08-28T12:13:02.758Z,34.76
2022-08-28T12:18:00.596Z,34.96
2022-08-28T12:22:58.740Z,35.03
2022-08-28T12:27:56.813Z,35.04
2022-08-28T12:32:56.282Z,34.99
2022-08-28T12:38:00.675Z,35.02
2022-08-28T12:42:59.630Z,34.99
2022-08-28T12:47:57.876Z,34.90
2022-08-28T12:52:56.585Z,34.56
2022-08-28T12:57:53.546Z,34.51
2022-08-28T13:02:51.554Z,34.52
2022-08-28T13:07:49.620Z,34.71
2022-08-28T13:12:55.985Z,34.77
2022-08-28T13:17:54.659Z,34.83
2022-08-28T13:22:51.429Z,34.88
2022-08-28T13:27:54.993Z,34.70
2022-08-28T13:32:56.296Z,34.80
2022-08-28T13:37:53.647Z,34.90
2022-08-28T13:42:51.328Z,34.96
2022-08-28T13:47:47.951Z,34.83
2022-08-28T13:52:45.320Z,34.84
2022-08-28T13:57:43.410Z,35.01
2022-08-28T14:02:58.598Z,34.97
2022-08-28T14:07:55.895Z,34.82
2022-08-28T14:12:52.635Z,34.55
2022-08-28T14:17:49.494Z,34.54
2022-08-28T14:22:46.093Z,34.81
2022-08-28T14:27:43.359Z,34.98
2022-08-28T14:32:39.991Z,35.26
2022-08-28T14:37:36.556Z,35.20
2022-08-28T14:42:33.167Z,34.93
2022-08-28T14:47:30.660Z,34.59
2022-08-28T14:52:27.319Z,34.53
2022-08-28T14:57:23.953Z,34.69
2022-08-28T15:02:20.656Z,34.72
2022-08-28T15:07:20.616Z,34.55
2022-08-28T15:12:17.546Z,34.58
2022-08-28T15:17:14.172Z,34.59
2022-08-28T15:22:10.823Z,34.53
2022-08-28T15:27:08.093Z,34.56
2022-08-28T15:32:08.341Z,34.67
2022-08-28T15:37:07.802Z,34.87
2022-08-28T15:42:06.052Z,35.70
2022-08-28T15:47:04.303Z,36.10
2022-08-28T15:52:00.909Z,36.00
2022-08-28T15:56:57.553Z,35.30
2022-08-28T16:01:54.366Z,34.95
2022-08-28T16:06:56.656Z,34.71
2022-08-28T16:11:57.400Z,34.76
2022-08-28T16:16:53.917Z,34.80
2022-08-28T16:21:51.330Z,34.79
2022-08-28T16:26:48.026Z,34.75
2022-08-28T16:31:45.184Z,34.75
2022-08-28T16:36:41.780Z,34.71
2022-08-28T16:41:39.049Z,34.68
2022-08-28T16:46:35.759Z,34.64
2022-08-28T16:51:32.480Z,34.60
2022-08-28T16:56:29.095Z,34.59
2022-08-28T17:01:27.978Z,34.55
2022-08-28T17:06:25.511Z,34.54
2022-08-28T17:11:22.078Z,34.53
2022-08-28T17:16:19.903Z,34.49
2022-08-28T17:21:36.349Z,34.48
2022-08-28T17:26:32.959Z,34.36
2022-08-28T17:31:29.721Z,34.07
2022-08-28T17:36:33.791Z,33.78
2022-08-28T17:41:31.414Z,33.76
2022-08-28T17:46:28.064Z,33.70
2022-08-28T17:51:33.178Z,33.75
2022-08-28T17:56:41.837Z,33.87
2022-08-28T18:01:38.654Z,33.82
2022-08-28T18:06:35.362Z,33.93
2022-08-28T18:11:32.050Z,33.92
2022-08-28T18:16:31.785Z,33.91
2022-08-28T18:21:28.937Z,33.88
2022-08-28T18:26:25.689Z,33.92
2022-08-28T18:31:22.683Z,33.89
2022-08-28T18:36:22.415Z,33.88
2022-08-28T18:41:19.861Z,33.88
2022-08-28T18:46:16.676Z,33.90
2022-08-28T18:51:13.628Z,33.66
2022-08-28T18:56:12.152Z,33.63
2022-08-28T19:01:09.145Z,33.41
2022-08-28T19:06:06.021Z,33.49
2022-08-28T19:11:06.966Z,33.36
2022-08-28T19:16:04.701Z,33.29
2022-08-28T19:21:05.089Z,33.40
2022-08-28T19:26:02.051Z,33.38
2022-08-28T19:30:58.747Z,33.21
2022-08-28T19:35:56.128Z,32.91
2022-08-28T19:40:52.839Z,33.03
2022-08-28T19:45:49.482Z,32.59
2022-08-28T19:50:46.056Z,32.34
2022-08-28T19:55:43.316Z,31.85
2022-08-28T20:00:39.855Z,31.71
2022-08-28T20:05:38.291Z,31.47
2022-08-28T20:10:37.322Z,31.36
2022-08-28T20:15:34.779Z,31.18
2022-08-28T20:20:31.455Z,31.38
2022-08-28T20:25:28.120Z,31.85
2022-08-28T20:30:24.735Z,32.14
2022-08-28T20:35:22.246Z,32.38
2022-08-28T20:40:21.469Z,32.48
2022-08-28T20:45:18.810Z,32.59
2022-08-28T20:50:15.487Z,32.62
2022-08-28T20:55:13.569Z,32.72
2022-08-28T21:00:10.916Z,32.72
2022-08-28T21:05:08.016Z,32.54
2022-08-28T21:10:07.903Z,32.55
2022-08-28T21:15:06.236Z,32.55
2022-08-28T21:20:05.808Z,32.66
2022-08-28T21:25:03.567Z,32.79
2022-08-28T21:30:00.454Z,32.67
2022-08-28T21:34:58.401Z,32.52
2022-08-28T21:39:56.429Z,32.26
2022-08-28T21:44:53.900Z,32.39
2022-08-28T21:49:50.978Z,32.01
2022-08-28T21:54:50.222Z,31.93
2022-08-28T21:59:46.785Z,31.97
2022-08-28T22:04:43.319Z,31.90
2022-08-28T22:09:40.255Z,31.92
2022-08-28T22:14:37.751Z,30.63
2022-08-28T22:19:34.305Z,29.92
2022-08-28T22:24:30.867Z,29.58
2022-08-28T22:29:30.192Z,29.38
2022-08-28T22:34:27.474Z,29.68
2022-08-28T22:39:24.003Z,29.87
2022-08-28T22:44:20.540Z,30.06
2022-08-28T22:49:17.100Z,29.76
2022-08-28T22:54:14.348Z,29.65
2022-08-28T22:59:11.314Z,29.50
2022-08-28T23:04:08.046Z,29.45
2022-08-28T23:09:04.760Z,29.23
2022-08-28T23:14:02.229Z,28.95
2022-08-28T23:19:13.892Z,28.83
2022-08-28T23:24:11.550Z,29.51
2022-08-28T23:29:09.108Z,29.80
2022-08-28T23:34:05.749Z,29.36
2022-08-28T23:39:02.906Z,29.20
2022-08-28T23:43:59.822Z,29.01
2022-08-28T23:48:57.129Z,29.22
2022-08-28T23:53:53.837Z,29.10
2022-08-28T23:58:53.227Z,28.89
